Accueil
METAR-TAF:

METAR-TAF

Aéroports :

Aéroport international Saint-Gall-Altenrhein

Saint-Gall, Suisse

latitude: 47-29-06N, longitude: 009-33-43E, altitude: 398 m

Observation

Le bulletin a été fait il y a 19 minutes, à 14:50 UTC
Vent 4 kt de ouest
Température 4°C
Humidité 87%
Pression 1023 hPa
Visibilité: 9000 m
Nuages épars à une hauteur de 1000 ft

METAR: LSZR 241450Z 26004KT 9000 SCT010 04/02 Q1023 NOSIG RMK K

Heure: 16:09 (15:09 UTC)

Prévision

Le bulletin a été fait il y a 44 minutes, à 14:25 UTC
Prévision valable du 24 à 15 UTC au 24 à 24 UTC
Vent 2 kt de direction variable
Visibilité: 9000 m
Nuages fragmentés à une hauteur de 900 ft
Probabilité 40%
du 24 à 15 UTC au 24 à 18 UTC
Nuages épars à une hauteur de 1200 ft
Evoluant progressivement
du 24 à 18 UTC au 24 à 21 UTC
Visibilité: 4500 m
brume

TAF: LSZR 241425Z 2415/2424 VRB02KT 9000 BKN009 PROB40 2415/2418 SCT012 BECMG 2418/2421 4500 BR

Observations et prévisions météorologiques de plus de 4000 aéroports (messages METAR et TAF).

Les stations disponibles sont représentées par des disques jaunes et rouges sur la carte.

Passer la souris dessus pour voir le nom de la station.

Cliquer dessus pour voir les observations et prévisions météorologiques.

Pour changer de carte: cliquez sur les boutons verts avec une croix noire pour zoomer, sur le bouton vert avec un tiret pour effectuer un zoom arrière, ou sur les flèches vertes pour les cartes adjacentes.


METAR-TAF: